sensor_id;sensor_type;location;lat;lon;timestamp;P1;durP1;ratioP1;P2;durP2;ratioP2
7432;SDS011;32233;49.500;7.764;2023-03-04T00:00:37;65.50;;;29.23;;
7432;SDS011;32233;49.500;7.764;2023-03-04T00:03:08;66.07;;;29.80;;
7432;SDS011;32233;49.500;7.764;2023-03-04T00:05:40;65.23;;;29.20;;
7432;SDS011;32233;49.500;7.764;2023-03-04T00:08:07;67.60;;;29.60;;
7432;SDS011;32233;49.500;7.764;2023-03-04T00:10:33;71.47;;;30.07;;
7432;SDS011;32233;49.500;7.764;2023-03-04T00:13:00;76.33;;;31.27;;
7432;SDS011;32233;49.500;7.764;2023-03-04T00:15:26;66.80;;;29.47;;
7432;SDS011;32233;49.500;7.764;2023-03-04T00:17:53;66.53;;;29.13;;
7432;SDS011;32233;49.500;7.764;2023-03-04T00:20:19;67.87;;;29.30;;
7432;SDS011;32233;49.500;7.764;2023-03-04T00:22:46;67.67;;;28.80;;
7432;SDS011;32233;49.500;7.764;2023-03-04T00:25:13;68.27;;;30.30;;
7432;SDS011;32233;49.500;7.764;2023-03-04T00:27:40;80.40;;;33.23;;
7432;SDS011;32233;49.500;7.764;2023-03-04T00:30:07;76.13;;;32.60;;
7432;SDS011;32233;49.500;7.764;2023-03-04T00:32:34;72.43;;;32.40;;
7432;SDS011;32233;49.500;7.764;2023-03-04T00:35:02;65.63;;;28.90;;
7432;SDS011;32233;49.500;7.764;2023-03-04T00:37:29;74.43;;;31.80;;
7432;SDS011;32233;49.500;7.764;2023-03-04T00:39:55;69.57;;;29.27;;
7432;SDS011;32233;49.500;7.764;2023-03-04T00:42:21;71.33;;;28.80;;
7432;SDS011;32233;49.500;7.764;2023-03-04T00:44:48;66.17;;;28.73;;
7432;SDS011;32233;49.500;7.764;2023-03-04T00:47:14;70.93;;;29.67;;
7432;SDS011;32233;49.500;7.764;2023-03-04T00:49:41;72.20;;;29.17;;
7432;SDS011;32233;49.500;7.764;2023-03-04T00:52:08;75.67;;;30.67;;
7432;SDS011;32233;49.500;7.764;2023-03-04T00:54:34;73.97;;;30.27;;
7432;SDS011;32233;49.500;7.764;2023-03-04T00:57:01;75.30;;;30.67;;
7432;SDS011;32233;49.500;7.764;2023-03-04T00:59:27;71.50;;;29.20;;
7432;SDS011;32233;49.500;7.764;2023-03-04T01:01:54;72.77;;;30.00;;
7432;SDS011;32233;49.500;7.764;2023-03-04T01:04:20;70.80;;;29.80;;
7432;SDS011;32233;49.500;7.764;2023-03-04T01:06:47;73.17;;;29.27;;
7432;SDS011;32233;49.500;7.764;2023-03-04T01:09:13;73.17;;;29.93;;
7432;SDS011;32233;49.500;7.764;2023-03-04T01:11:40;62.93;;;28.53;;
7432;SDS011;32233;49.500;7.764;2023-03-04T01:14:06;70.97;;;29.37;;
7432;SDS011;32233;49.500;7.764;2023-03-04T01:16:33;67.97;;;28.03;;
7432;SDS011;32233;49.500;7.764;2023-03-04T01:19:00;68.77;;;27.97;;
7432;SDS011;32233;49.500;7.764;2023-03-04T01:21:26;70.23;;;28.80;;
7432;SDS011;32233;49.500;7.764;2023-03-04T01:23:54;66.80;;;28.83;;
7432;SDS011;32233;49.500;7.764;2023-03-04T01:26:20;67.83;;;28.70;;
7432;SDS011;32233;49.500;7.764;2023-03-04T01:28:47;73.10;;;28.73;;
7432;SDS011;32233;49.500;7.764;2023-03-04T01:31:13;70.97;;;29.00;;
7432;SDS011;32233;49.500;7.764;2023-03-04T01:33:40;67.23;;;29.27;;
7432;SDS011;32233;49.500;7.764;2023-03-04T01:36:08;73.53;;;28.93;;
7432;SDS011;32233;49.500;7.764;2023-03-04T01:38:35;74.20;;;30.77;;
7432;SDS011;32233;49.500;7.764;2023-03-04T01:41:01;73.03;;;29.77;;
7432;SDS011;32233;49.500;7.764;2023-03-04T01:43:28;71.33;;;30.20;;
7432;SDS011;32233;49.500;7.764;2023-03-04T01:45:56;72.50;;;30.27;;
7432;SDS011;32233;49.500;7.764;2023-03-04T01:48:24;70.47;;;29.07;;
7432;SDS011;32233;49.500;7.764;2023-03-04T01:50:53;67.07;;;28.43;;
7432;SDS011;32233;49.500;7.764;2023-03-04T01:53:21;73.07;;;29.17;;
7432;SDS011;32233;49.500;7.764;2023-03-04T01:55:54;71.90;;;29.10;;
7432;SDS011;32233;49.500;7.764;2023-03-04T01:58:28;70.83;;;29.03;;
7432;SDS011;32233;49.500;7.764;2023-03-04T02:00:56;81.00;;;31.40;;
7432;SDS011;32233;49.500;7.764;2023-03-04T02:03:23;75.73;;;29.63;;
7432;SDS011;32233;49.500;7.764;2023-03-04T02:05:50;77.87;;;30.57;;
7432;SDS011;32233;49.500;7.764;2023-03-04T02:08:19;74.30;;;29.97;;
7432;SDS011;32233;49.500;7.764;2023-03-04T02:10:48;72.57;;;30.23;;
7432;SDS011;32233;49.500;7.764;2023-03-04T02:13:16;76.80;;;29.63;;
7432;SDS011;32233;49.500;7.764;2023-03-04T02:15:43;71.33;;;29.40;;
7432;SDS011;32233;49.500;7.764;2023-03-04T02:20:44;76.17;;;30.97;;
7432;SDS011;32233;49.500;7.764;2023-03-04T02:26:22;82.37;;;31.77;;
7432;SDS011;32233;49.500;7.764;2023-03-04T02:28:52;82.00;;;32.73;;
7432;SDS011;32233;49.500;7.764;2023-03-04T02:34:00;80.97;;;30.30;;
7432;SDS011;32233;49.500;7.764;2023-03-04T02:36:29;85.93;;;30.87;;
7432;SDS011;32233;49.500;7.764;2023-03-04T02:39:02;82.47;;;30.70;;
7432;SDS011;32233;49.500;7.764;2023-03-04T02:41:40;84.80;;;30.67;;
7432;SDS011;32233;49.500;7.764;2023-03-04T02:44:18;88.93;;;31.57;;
7432;SDS011;32233;49.500;7.764;2023-03-04T02:46:47;82.83;;;30.60;;
7432;SDS011;32233;49.500;7.764;2023-03-04T02:49:15;77.90;;;29.20;;
7432;SDS011;32233;49.500;7.764;2023-03-04T02:51:43;80.87;;;30.93;;
7432;SDS011;32233;49.500;7.764;2023-03-04T02:54:16;81.07;;;31.27;;
7432;SDS011;32233;49.500;7.764;2023-03-04T02:56:46;78.77;;;30.90;;
7432;SDS011;32233;49.500;7.764;2023-03-04T02:59:17;82.80;;;31.43;;
7432;SDS011;32233;49.500;7.764;2023-03-04T03:01:44;82.53;;;29.80;;
7432;SDS011;32233;49.500;7.764;2023-03-04T03:04:12;81.37;;;31.03;;
7432;SDS011;32233;49.500;7.764;2023-03-04T03:06:40;81.63;;;32.20;;
7432;SDS011;32233;49.500;7.764;2023-03-04T03:09:07;79.37;;;31.50;;
7432;SDS011;32233;49.500;7.764;2023-03-04T03:11:34;78.67;;;30.23;;
7432;SDS011;32233;49.500;7.764;2023-03-04T03:14:02;82.17;;;31.30;;
7432;SDS011;32233;49.500;7.764;2023-03-04T03:16:29;79.03;;;30.40;;
7432;SDS011;32233;49.500;7.764;2023-03-04T03:18:56;80.57;;;30.90;;
7432;SDS011;32233;49.500;7.764;2023-03-04T03:21:23;76.30;;;29.70;;
7432;SDS011;32233;49.500;7.764;2023-03-04T03:23:49;85.37;;;32.30;;
7432;SDS011;32233;49.500;7.764;2023-03-04T03:26:16;85.10;;;30.77;;
7432;SDS011;32233;49.500;7.764;2023-03-04T03:28:44;77.50;;;30.00;;
7432;SDS011;32233;49.500;7.764;2023-03-04T03:31:10;78.87;;;30.07;;
7432;SDS011;32233;49.500;7.764;2023-03-04T03:33:37;82.47;;;32.00;;
7432;SDS011;32233;49.500;7.764;2023-03-04T03:36:04;83.23;;;30.27;;
7432;SDS011;32233;49.500;7.764;2023-03-04T03:38:31;82.47;;;31.27;;
7432;SDS011;32233;49.500;7.764;2023-03-04T03:40:58;81.30;;;30.53;;
7432;SDS011;32233;49.500;7.764;2023-03-04T03:43:24;82.90;;;29.83;;
7432;SDS011;32233;49.500;7.764;2023-03-04T03:45:51;77.73;;;29.90;;
7432;SDS011;32233;49.500;7.764;2023-03-04T03:48:17;74.00;;;29.17;;
7432;SDS011;32233;49.500;7.764;2023-03-04T03:50:44;81.07;;;31.17;;
7432;SDS011;32233;49.500;7.764;2023-03-04T03:53:10;88.53;;;31.43;;
7432;SDS011;32233;49.500;7.764;2023-03-04T03:55:37;82.93;;;32.30;;
7432;SDS011;32233;49.500;7.764;2023-03-04T03:58:04;85.07;;;31.20;;
7432;SDS011;32233;49.500;7.764;2023-03-04T04:00:30;77.80;;;29.77;;
7432;SDS011;32233;49.500;7.764;2023-03-04T04:02:57;75.90;;;30.63;;
7432;SDS011;32233;49.500;7.764;2023-03-04T04:05:25;81.70;;;30.83;;
7432;SDS011;32233;49.500;7.764;2023-03-04T04:07:52;82.73;;;29.73;;
7432;SDS011;32233;49.500;7.764;2023-03-04T04:10:19;78.30;;;29.87;;
7432;SDS011;32233;49.500;7.764;2023-03-04T04:12:46;81.20;;;29.20;;
7432;SDS011;32233;49.500;7.764;2023-03-04T04:15:13;83.37;;;29.87;;
7432;SDS011;32233;49.500;7.764;2023-03-04T04:17:39;77.23;;;29.50;;
7432;SDS011;32233;49.500;7.764;2023-03-04T04:20:07;79.37;;;29.40;;
7432;SDS011;32233;49.500;7.764;2023-03-04T04:22:34;84.63;;;30.37;;
7432;SDS011;32233;49.500;7.764;2023-03-04T04:25:01;86.57;;;29.17;;
7432;SDS011;32233;49.500;7.764;2023-03-04T04:27:27;81.43;;;28.43;;
7432;SDS011;32233;49.500;7.764;2023-03-04T04:29:54;81.63;;;28.97;;
7432;SDS011;32233;49.500;7.764;2023-03-04T04:32:20;79.40;;;27.20;;
7432;SDS011;32233;49.500;7.764;2023-03-04T04:34:47;79.20;;;28.53;;
7432;SDS011;32233;49.500;7.764;2023-03-04T04:37:13;86.50;;;29.97;;
7432;SDS011;32233;49.500;7.764;2023-03-04T04:39:40;82.80;;;28.60;;
7432;SDS011;32233;49.500;7.764;2023-03-04T04:42:07;73.57;;;27.67;;
7432;SDS011;32233;49.500;7.764;2023-03-04T04:44:36;88.87;;;30.03;;
7432;SDS011;32233;49.500;7.764;2023-03-04T04:47:04;81.93;;;28.60;;
7432;SDS011;32233;49.500;7.764;2023-03-04T04:49:32;91.17;;;31.87;;
7432;SDS011;32233;49.500;7.764;2023-03-04T04:51:58;81.80;;;28.50;;
7432;SDS011;32233;49.500;7.764;2023-03-04T04:54:25;80.77;;;29.30;;
7432;SDS011;32233;49.500;7.764;2023-03-04T04:56:52;82.40;;;29.33;;
7432;SDS011;32233;49.500;7.764;2023-03-04T04:59:18;82.83;;;28.60;;
7432;SDS011;32233;49.500;7.764;2023-03-04T05:01:45;80.47;;;28.93;;
7432;SDS011;32233;49.500;7.764;2023-03-04T05:04:11;79.80;;;29.30;;
7432;SDS011;32233;49.500;7.764;2023-03-04T05:06:38;81.90;;;29.97;;
7432;SDS011;32233;49.500;7.764;2023-03-04T05:09:05;77.97;;;29.13;;
7432;SDS011;32233;49.500;7.764;2023-03-04T05:11:32;85.77;;;29.27;;
7432;SDS011;32233;49.500;7.764;2023-03-04T05:13:59;81.57;;;29.20;;
7432;SDS011;32233;49.500;7.764;2023-03-04T05:16:25;82.47;;;28.30;;
7432;SDS011;32233;49.500;7.764;2023-03-04T05:18:52;85.33;;;29.33;;
7432;SDS011;32233;49.500;7.764;2023-03-04T05:21:19;85.13;;;29.57;;
7432;SDS011;32233;49.500;7.764;2023-03-04T05:23:46;85.73;;;29.60;;
7432;SDS011;32233;49.500;7.764;2023-03-04T05:26:14;81.93;;;29.43;;
7432;SDS011;32233;49.500;7.764;2023-03-04T05:28:42;87.13;;;29.50;;
7432;SDS011;32233;49.500;7.764;2023-03-04T05:31:09;73.87;;;28.07;;
7432;SDS011;32233;49.500;7.764;2023-03-04T05:33:36;78.30;;;28.03;;
7432;SDS011;32233;49.500;7.764;2023-03-04T05:36:04;91.10;;;30.07;;
7432;SDS011;32233;49.500;7.764;2023-03-04T05:38:31;79.97;;;28.97;;
7432;SDS011;32233;49.500;7.764;2023-03-04T05:41:00;78.00;;;28.77;;
7432;SDS011;32233;49.500;7.764;2023-03-04T05:43:28;84.30;;;30.37;;
7432;SDS011;32233;49.500;7.764;2023-03-04T05:45:56;82.17;;;29.47;;
7432;SDS011;32233;49.500;7.764;2023-03-04T05:48:22;83.73;;;30.23;;
7432;SDS011;32233;49.500;7.764;2023-03-04T05:50:52;87.13;;;29.93;;
7432;SDS011;32233;49.500;7.764;2023-03-04T05:53:23;77.27;;;29.00;;
7432;SDS011;32233;49.500;7.764;2023-03-04T05:55:50;80.27;;;28.83;;
7432;SDS011;32233;49.500;7.764;2023-03-04T05:58:17;81.47;;;28.00;;
7432;SDS011;32233;49.500;7.764;2023-03-04T06:00:44;80.97;;;29.63;;
7432;SDS011;32233;49.500;7.764;2023-03-04T06:03:14;77.97;;;29.53;;
7432;SDS011;32233;49.500;7.764;2023-03-04T06:05:42;80.23;;;29.13;;
7432;SDS011;32233;49.500;7.764;2023-03-04T06:08:09;82.63;;;30.90;;
7432;SDS011;32233;49.500;7.764;2023-03-04T06:10:37;83.67;;;30.10;;
7432;SDS011;32233;49.500;7.764;2023-03-04T06:13:05;79.80;;;29.37;;
7432;SDS011;32233;49.500;7.764;2023-03-04T06:15:32;80.27;;;28.63;;
7432;SDS011;32233;49.500;7.764;2023-03-04T06:17:58;88.07;;;29.53;;
7432;SDS011;32233;49.500;7.764;2023-03-04T06:20:25;80.30;;;28.63;;
7432;SDS011;32233;49.500;7.764;2023-03-04T06:22:51;81.27;;;29.67;;
7432;SDS011;32233;49.500;7.764;2023-03-04T06:25:18;79.97;;;28.83;;
7432;SDS011;32233;49.500;7.764;2023-03-04T06:27:45;75.87;;;27.97;;
7432;SDS011;32233;49.500;7.764;2023-03-04T06:30:12;67.97;;;27.37;;
7432;SDS011;32233;49.500;7.764;2023-03-04T06:32:38;84.27;;;28.50;;
7432;SDS011;32233;49.500;7.764;2023-03-04T06:35:05;85.93;;;29.60;;
7432;SDS011;32233;49.500;7.764;2023-03-04T06:37:32;75.73;;;29.13;;
7432;SDS011;32233;49.500;7.764;2023-03-04T06:39:58;85.93;;;30.60;;
7432;SDS011;32233;49.500;7.764;2023-03-04T06:42:25;78.60;;;28.50;;
7432;SDS011;32233;49.500;7.764;2023-03-04T06:44:51;77.10;;;28.67;;
7432;SDS011;32233;49.500;7.764;2023-03-04T06:47:18;75.23;;;28.63;;
7432;SDS011;32233;49.500;7.764;2023-03-04T06:49:44;76.17;;;29.57;;
7432;SDS011;32233;49.500;7.764;2023-03-04T06:52:11;82.27;;;29.93;;
7432;SDS011;32233;49.500;7.764;2023-03-04T06:54:38;88.00;;;31.97;;
7432;SDS011;32233;49.500;7.764;2023-03-04T06:57:05;93.50;;;34.30;;
7432;SDS011;32233;49.500;7.764;2023-03-04T06:59:32;95.43;;;33.00;;
7432;SDS011;32233;49.500;7.764;2023-03-04T07:01:59;91.77;;;33.30;;
7432;SDS011;32233;49.500;7.764;2023-03-04T07:04:26;90.33;;;32.50;;
7432;SDS011;32233;49.500;7.764;2023-03-04T07:06:52;90.10;;;33.80;;
7432;SDS011;32233;49.500;7.764;2023-03-04T07:09:19;88.23;;;32.67;;
7432;SDS011;32233;49.500;7.764;2023-03-04T07:11:45;85.80;;;34.33;;
7432;SDS011;32233;49.500;7.764;2023-03-04T07:14:12;88.47;;;33.53;;
7432;SDS011;32233;49.500;7.764;2023-03-04T07:16:38;92.33;;;33.50;;
7432;SDS011;32233;49.500;7.764;2023-03-04T07:19:05;97.43;;;34.33;;
7432;SDS011;32233;49.500;7.764;2023-03-04T07:21:32;83.10;;;32.80;;
7432;SDS011;32233;49.500;7.764;2023-03-04T07:23:58;91.03;;;34.60;;
7432;SDS011;32233;49.500;7.764;2023-03-04T07:26:25;88.17;;;33.97;;
7432;SDS011;32233;49.500;7.764;2023-03-04T07:28:51;91.43;;;34.20;;
7432;SDS011;32233;49.500;7.764;2023-03-04T07:33:50;86.67;;;34.80;;
7432;SDS011;32233;49.500;7.764;2023-03-04T07:36:17;91.67;;;34.00;;
7432;SDS011;32233;49.500;7.764;2023-03-04T07:38:45;79.87;;;32.17;;
7432;SDS011;32233;49.500;7.764;2023-03-04T07:41:13;83.23;;;31.77;;
7432;SDS011;32233;49.500;7.764;2023-03-04T07:43:41;84.33;;;32.93;;
7432;SDS011;32233;49.500;7.764;2023-03-04T07:46:08;79.70;;;31.93;;
7432;SDS011;32233;49.500;7.764;2023-03-04T07:48:35;88.77;;;34.70;;
7432;SDS011;32233;49.500;7.764;2023-03-04T07:51:09;95.60;;;38.60;;
7432;SDS011;32233;49.500;7.764;2023-03-04T07:53:39;92.33;;;35.73;;
7432;SDS011;32233;49.500;7.764;2023-03-04T07:56:07;85.90;;;32.17;;
7432;SDS011;32233;49.500;7.764;2023-03-04T07:58:38;88.67;;;34.93;;
7432;SDS011;32233;49.500;7.764;2023-03-04T08:01:09;162.47;;;81.97;;
7432;SDS011;32233;49.500;7.764;2023-03-04T08:03:40;84.07;;;35.17;;
7432;SDS011;32233;49.500;7.764;2023-03-04T08:06:08;79.13;;;33.80;;
7432;SDS011;32233;49.500;7.764;2023-03-04T08:08:36;89.63;;;34.57;;
7432;SDS011;32233;49.500;7.764;2023-03-04T08:11:04;82.50;;;33.23;;
7432;SDS011;32233;49.500;7.764;2023-03-04T08:13:32;86.50;;;34.53;;
7432;SDS011;32233;49.500;7.764;2023-03-04T08:15:59;88.23;;;34.10;;
7432;SDS011;32233;49.500;7.764;2023-03-04T08:18:26;86.43;;;34.87;;
7432;SDS011;32233;49.500;7.764;2023-03-04T08:20:52;100.23;;;40.03;;
7432;SDS011;32233;49.500;7.764;2023-03-04T08:23:19;92.00;;;38.00;;
7432;SDS011;32233;49.500;7.764;2023-03-04T08:25:46;87.93;;;34.67;;
7432;SDS011;32233;49.500;7.764;2023-03-04T08:28:13;94.43;;;35.67;;
7432;SDS011;32233;49.500;7.764;2023-03-04T08:30:40;82.93;;;33.37;;
7432;SDS011;32233;49.500;7.764;2023-03-04T08:33:06;84.93;;;33.00;;
7432;SDS011;32233;49.500;7.764;2023-03-04T08:35:37;92.27;;;34.33;;
7432;SDS011;32233;49.500;7.764;2023-03-04T08:38:05;92.57;;;35.07;;
7432;SDS011;32233;49.500;7.764;2023-03-04T08:40:32;83.23;;;34.60;;
7432;SDS011;32233;49.500;7.764;2023-03-04T08:42:59;83.47;;;33.70;;
7432;SDS011;32233;49.500;7.764;2023-03-04T08:45:25;89.73;;;33.83;;
7432;SDS011;32233;49.500;7.764;2023-03-04T08:47:52;88.07;;;34.70;;
7432;SDS011;32233;49.500;7.764;2023-03-04T08:50:19;87.00;;;33.43;;
7432;SDS011;32233;49.500;7.764;2023-03-04T08:52:47;86.43;;;35.20;;
7432;SDS011;32233;49.500;7.764;2023-03-04T08:55:14;89.60;;;35.50;;
7432;SDS011;32233;49.500;7.764;2023-03-04T08:57:41;86.90;;;34.23;;
7432;SDS011;32233;49.500;7.764;2023-03-04T09:00:07;85.63;;;34.80;;
7432;SDS011;32233;49.500;7.764;2023-03-04T09:02:34;79.40;;;33.23;;
7432;SDS011;32233;49.500;7.764;2023-03-04T09:05:01;82.90;;;33.33;;
7432;SDS011;32233;49.500;7.764;2023-03-04T09:07:28;86.20;;;34.27;;
7432;SDS011;32233;49.500;7.764;2023-03-04T09:09:54;87.03;;;34.97;;
7432;SDS011;32233;49.500;7.764;2023-03-04T09:12:21;82.97;;;33.33;;
7432;SDS011;32233;49.500;7.764;2023-03-04T09:14:47;83.93;;;35.83;;
7432;SDS011;32233;49.500;7.764;2023-03-04T09:17:33;87.37;;;36.27;;
7432;SDS011;32233;49.500;7.764;2023-03-04T09:20:00;78.40;;;34.10;;
7432;SDS011;32233;49.500;7.764;2023-03-04T09:22:29;81.53;;;34.33;;
7432;SDS011;32233;49.500;7.764;2023-03-04T09:24:56;85.50;;;34.13;;
7432;SDS011;32233;49.500;7.764;2023-03-04T09:27:22;82.17;;;34.37;;
7432;SDS011;32233;49.500;7.764;2023-03-04T09:29:49;84.13;;;35.17;;
7432;SDS011;32233;49.500;7.764;2023-03-04T09:32:15;88.83;;;34.80;;
7432;SDS011;32233;49.500;7.764;2023-03-04T09:34:42;83.80;;;35.97;;
7432;SDS011;32233;49.500;7.764;2023-03-04T09:37:09;82.10;;;35.27;;
7432;SDS011;32233;49.500;7.764;2023-03-04T09:39:35;80.07;;;34.07;;
7432;SDS011;32233;49.500;7.764;2023-03-04T09:42:02;80.20;;;33.33;;
7432;SDS011;32233;49.500;7.764;2023-03-04T09:44:32;79.60;;;32.43;;
7432;SDS011;32233;49.500;7.764;2023-03-04T09:47:03;78.70;;;33.33;;
7432;SDS011;32233;49.500;7.764;2023-03-04T09:49:33;72.97;;;31.57;;
7432;SDS011;32233;49.500;7.764;2023-03-04T10:00:04;83.20;;;35.27;;
7432;SDS011;32233;49.500;7.764;2023-03-04T10:05:40;85.87;;;36.33;;
7432;SDS011;32233;49.500;7.764;2023-03-04T10:08:35;82.13;;;35.53;;
7432;SDS011;32233;49.500;7.764;2023-03-04T10:11:08;75.70;;;33.93;;
7432;SDS011;32233;49.500;7.764;2023-03-04T10:16:33;77.70;;;34.00;;
7432;SDS011;32233;49.500;7.764;2023-03-04T10:21:48;79.43;;;33.07;;
7432;SDS011;32233;49.500;7.764;2023-03-04T10:24:17;78.23;;;33.83;;
7432;SDS011;32233;49.500;7.764;2023-03-04T10:26:50;81.33;;;33.77;;
7432;SDS011;32233;49.500;7.764;2023-03-04T10:29:20;82.00;;;34.47;;
7432;SDS011;32233;49.500;7.764;2023-03-04T10:31:49;87.23;;;36.33;;
7432;SDS011;32233;49.500;7.764;2023-03-04T10:34:16;81.97;;;34.40;;
7432;SDS011;32233;49.500;7.764;2023-03-04T10:39:26;76.47;;;32.77;;
7432;SDS011;32233;49.500;7.764;2023-03-04T10:41:55;71.50;;;30.30;;
7432;SDS011;32233;49.500;7.764;2023-03-04T10:44:24;66.80;;;29.37;;
7432;SDS011;32233;49.500;7.764;2023-03-04T10:46:52;65.87;;;28.47;;
7432;SDS011;32233;49.500;7.764;2023-03-04T10:49:20;69.60;;;29.23;;
7432;SDS011;32233;49.500;7.764;2023-03-04T10:54:49;73.03;;;30.17;;
7432;SDS011;32233;49.500;7.764;2023-03-04T11:07:31;71.70;;;31.13;;
7432;SDS011;32233;49.500;7.764;2023-03-04T11:15:19;51.77;;;22.10;;
7432;SDS011;32233;49.500;7.764;2023-03-04T11:17:54;42.17;;;17.60;;
7432;SDS011;32233;49.500;7.764;2023-03-04T11:20:41;43.27;;;17.23;;
7432;SDS011;32233;49.500;7.764;2023-03-04T11:23:11;41.93;;;17.43;;
7432;SDS011;32233;49.500;7.764;2023-03-04T11:25:49;36.17;;;16.63;;
7432;SDS011;32233;49.500;7.764;2023-03-04T11:28:25;37.77;;;16.67;;
7432;SDS011;32233;49.500;7.764;2023-03-04T11:31:30;40.80;;;16.93;;
7432;SDS011;32233;49.500;7.764;2023-03-04T11:34:14;43.33;;;17.10;;
7432;SDS011;32233;49.500;7.764;2023-03-04T11:39:58;46.13;;;18.43;;
7432;SDS011;32233;49.500;7.764;2023-03-04T11:42:40;49.87;;;20.53;;
7432;SDS011;32233;49.500;7.764;2023-03-04T11:45:15;44.53;;;18.80;;
7432;SDS011;32233;49.500;7.764;2023-03-04T11:48:56;48.93;;;20.63;;
7432;SDS011;32233;49.500;7.764;2023-03-04T11:50:53;49.03;;;20.40;;
7432;SDS011;32233;49.500;7.764;2023-03-04T11:53:32;59.17;;;22.23;;
7432;SDS011;32233;49.500;7.764;2023-03-04T11:56:29;53.63;;;21.37;;
7432;SDS011;32233;49.500;7.764;2023-03-04T11:59:03;51.43;;;20.50;;
7432;SDS011;32233;49.500;7.764;2023-03-04T12:01:46;50.27;;;20.53;;
7432;SDS011;32233;49.500;7.764;2023-03-04T12:04:31;50.73;;;21.27;;
7432;SDS011;32233;49.500;7.764;2023-03-04T12:07:08;54.30;;;22.03;;
7432;SDS011;32233;49.500;7.764;2023-03-04T12:10:03;50.50;;;21.13;;
7432;SDS011;32233;49.500;7.764;2023-03-04T12:15:48;59.83;;;22.07;;
7432;SDS011;32233;49.500;7.764;2023-03-04T12:21:43;54.27;;;21.90;;
7432;SDS011;32233;49.500;7.764;2023-03-04T12:24:33;52.27;;;21.33;;
7432;SDS011;32233;49.500;7.764;2023-03-04T12:32:35;50.70;;;21.00;;
7432;SDS011;32233;49.500;7.764;2023-03-04T12:35:23;50.20;;;20.43;;
7432;SDS011;32233;49.500;7.764;2023-03-04T12:41:01;51.20;;;20.00;;
7432;SDS011;32233;49.500;7.764;2023-03-04T12:46:56;47.47;;;19.30;;
7432;SDS011;32233;49.500;7.764;2023-03-04T12:49:46;46.40;;;18.67;;
7432;SDS011;32233;49.500;7.764;2023-03-04T12:52:40;46.00;;;18.83;;
7432;SDS011;32233;49.500;7.764;2023-03-04T12:55:13;42.03;;;16.53;;
7432;SDS011;32233;49.500;7.764;2023-03-04T12:57:44;38.97;;;16.23;;
7432;SDS011;32233;49.500;7.764;2023-03-04T13:02:46;37.70;;;16.40;;
7432;SDS011;32233;49.500;7.764;2023-03-04T13:05:41;41.10;;;17.00;;
7432;SDS011;32233;49.500;7.764;2023-03-04T13:08:34;36.17;;;16.63;;
7432;SDS011;32233;49.500;7.764;2023-03-04T13:14:06;41.67;;;17.00;;
7432;SDS011;32233;49.500;7.764;2023-03-04T13:16:49;38.30;;;16.23;;
7432;SDS011;32233;49.500;7.764;2023-03-04T13:28:05;34.77;;;15.40;;
7432;SDS011;32233;49.500;7.764;2023-03-04T13:35:48;34.00;;;14.73;;
7432;SDS011;32233;49.500;7.764;2023-03-04T13:41:18;32.70;;;14.63;;
7432;SDS011;32233;49.500;7.764;2023-03-04T13:43:54;35.17;;;14.03;;
7432;SDS011;32233;49.500;7.764;2023-03-04T13:51:16;41.03;;;14.13;;
7432;SDS011;32233;49.500;7.764;2023-03-04T13:56:34;35.87;;;14.10;;
7432;SDS011;32233;49.500;7.764;2023-03-04T14:06:41;34.10;;;14.67;;
7432;SDS011;32233;49.500;7.764;2023-03-04T14:09:13;31.00;;;13.47;;
7432;SDS011;32233;49.500;7.764;2023-03-04T14:11:41;31.40;;;14.03;;
7432;SDS011;32233;49.500;7.764;2023-03-04T14:14:13;28.53;;;13.30;;
7432;SDS011;32233;49.500;7.764;2023-03-04T14:16:47;26.73;;;12.80;;
7432;SDS011;32233;49.500;7.764;2023-03-04T14:19:22;32.33;;;12.47;;
7432;SDS011;32233;49.500;7.764;2023-03-04T14:21:52;28.60;;;12.43;;
7432;SDS011;32233;49.500;7.764;2023-03-04T14:24:20;25.77;;;11.93;;
7432;SDS011;32233;49.500;7.764;2023-03-04T14:26:48;27.07;;;11.90;;
7432;SDS011;32233;49.500;7.764;2023-03-04T14:29:19;31.23;;;12.13;;
7432;SDS011;32233;49.500;7.764;2023-03-04T14:31:49;24.70;;;11.40;;
7432;SDS011;32233;49.500;7.764;2023-03-04T14:34:22;22.83;;;11.73;;
7432;SDS011;32233;49.500;7.764;2023-03-04T14:36:58;23.63;;;11.47;;
7432;SDS011;32233;49.500;7.764;2023-03-04T14:39:26;25.80;;;13.20;;
7432;SDS011;32233;49.500;7.764;2023-03-04T14:41:56;23.87;;;12.77;;
7432;SDS011;32233;49.500;7.764;2023-03-04T14:44:41;26.23;;;11.80;;
7432;SDS011;32233;49.500;7.764;2023-03-04T14:47:26;21.33;;;10.43;;
7432;SDS011;32233;49.500;7.764;2023-03-04T14:49:55;21.40;;;9.43;;
7432;SDS011;32233;49.500;7.764;2023-03-04T14:52:27;21.43;;;10.53;;
7432;SDS011;32233;49.500;7.764;2023-03-04T14:58:08;23.87;;;9.93;;
7432;SDS011;32233;49.500;7.764;2023-03-04T15:00:45;19.40;;;10.17;;
7432;SDS011;32233;49.500;7.764;2023-03-04T15:05:47;17.47;;;9.13;;
7432;SDS011;32233;49.500;7.764;2023-03-04T15:08:19;21.30;;;8.90;;
7432;SDS011;32233;49.500;7.764;2023-03-04T15:11:07;20.77;;;9.13;;
7432;SDS011;32233;49.500;7.764;2023-03-04T15:13:47;21.93;;;9.93;;
7432;SDS011;32233;49.500;7.764;2023-03-04T15:16:16;20.97;;;10.33;;
7432;SDS011;32233;49.500;7.764;2023-03-04T15:19:04;24.10;;;12.73;;
7432;SDS011;32233;49.500;7.764;2023-03-04T15:21:48;18.90;;;9.37;;
7432;SDS011;32233;49.500;7.764;2023-03-04T15:24:15;20.43;;;9.17;;
7432;SDS011;32233;49.500;7.764;2023-03-04T15:26:41;16.73;;;8.03;;
7432;SDS011;32233;49.500;7.764;2023-03-04T15:29:13;17.30;;;8.60;;
7432;SDS011;32233;49.500;7.764;2023-03-04T15:31:42;19.43;;;8.63;;
7432;SDS011;32233;49.500;7.764;2023-03-04T15:34:16;18.30;;;8.53;;
7432;SDS011;32233;49.500;7.764;2023-03-04T15:36:45;15.73;;;8.03;;
7432;SDS011;32233;49.500;7.764;2023-03-04T15:39:14;17.63;;;7.67;;
7432;SDS011;32233;49.500;7.764;2023-03-04T15:41:42;15.63;;;7.33;;
7432;SDS011;32233;49.500;7.764;2023-03-04T15:44:11;20.60;;;9.20;;
7432;SDS011;32233;49.500;7.764;2023-03-04T15:46:38;17.13;;;7.53;;
7432;SDS011;32233;49.500;7.764;2023-03-04T15:49:04;19.67;;;7.77;;
7432;SDS011;32233;49.500;7.764;2023-03-04T15:51:31;17.63;;;8.10;;
7432;SDS011;32233;49.500;7.764;2023-03-04T15:53:58;22.83;;;10.63;;
7432;SDS011;32233;49.500;7.764;2023-03-04T15:56:26;20.37;;;9.37;;
7432;SDS011;32233;49.500;7.764;2023-03-04T15:58:55;19.03;;;11.10;;
7432;SDS011;32233;49.500;7.764;2023-03-04T16:01:24;18.87;;;10.23;;
7432;SDS011;32233;49.500;7.764;2023-03-04T16:03:51;17.17;;;8.53;;
7432;SDS011;32233;49.500;7.764;2023-03-04T16:06:19;18.50;;;8.70;;
7432;SDS011;32233;49.500;7.764;2023-03-04T16:08:49;18.87;;;8.40;;
7432;SDS011;32233;49.500;7.764;2023-03-04T16:11:21;19.60;;;9.90;;
7432;SDS011;32233;49.500;7.764;2023-03-04T16:13:49;17.70;;;8.93;;
7432;SDS011;32233;49.500;7.764;2023-03-04T16:16:16;20.77;;;8.87;;
7432;SDS011;32233;49.500;7.764;2023-03-04T16:18:42;18.20;;;9.30;;
7432;SDS011;32233;49.500;7.764;2023-03-04T16:21:11;22.70;;;8.67;;
7432;SDS011;32233;49.500;7.764;2023-03-04T16:23:40;16.13;;;8.73;;
7432;SDS011;32233;49.500;7.764;2023-03-04T16:26:13;17.27;;;8.07;;
7432;SDS011;32233;49.500;7.764;2023-03-04T16:28:42;13.67;;;6.33;;
7432;SDS011;32233;49.500;7.764;2023-03-04T16:31:09;16.03;;;7.60;;
7432;SDS011;32233;49.500;7.764;2023-03-04T16:33:37;17.80;;;8.40;;
7432;SDS011;32233;49.500;7.764;2023-03-04T16:36:09;17.83;;;6.93;;
7432;SDS011;32233;49.500;7.764;2023-03-04T16:38:39;15.17;;;7.33;;
7432;SDS011;32233;49.500;7.764;2023-03-04T16:41:10;14.03;;;6.93;;
7432;SDS011;32233;49.500;7.764;2023-03-04T16:43:38;14.40;;;6.57;;